Waco Regional Airport
KACT : now visible

Airfield :











YOU CAN JOIN US ON...

 
LOGIN :

Register | Disclaimer

   EN    FR    IT 

 









Legend :    VFR   Marginal VFR   IFR   Intensive IFR   Very Intensive IFR
Visi :
Ceiling :
>= 8 km
>= 3000ft
5 to 8 km
1000 to 3000 ft
1500m to 5 km
500 to 1000 ft
800 to 1500m
200 to 500 ft
< 800m
< 200 ft
Symbols :   Thunderstorms  Fog  Heavy snow  Heavy precipitations  Wind > 20 kt






- Airport Elevation : 516 ft
- IATA code : ACT


KACT - Waco Regional

CURRENT METAR :
  • 141951Z 13008KT 10SM CLR 21/07 A2979 RMK AO2 SLP086 T02060072 $

EXPIRED METARs :
  • 141851Z 12007KT 10SM CLR 19/07 A2983 RMK AO2 SLP098 T01890072 $
  • 141751Z 17005KT 10SM CLR 17/07 A2987 RMK AO2 SLP113 T01720067 10172 20006 58009 $

TAF KACT
Valid from the 14 at 18:00 until the 15 at 18:00 UTC


141726Z 1418/1518 13007KT P6SM FEW250
FM150900 17008KT 4SM BR FEW250
TEMPO 1511/1515 2SM BR BKN012
FM151600 19011KT P6SM FEW020 SCT250



MET'MAP, your aeronautical weather chart ! - Copyright ORBIFLY December 2007 - Disclaimer

ORBIFLY MET'MAP TEAM :

Programming & Development : Alexandra Zaïnal
Concept & original design : Baudouin d'Aumeries
Assistance for programming : Marc-Olivier Méhu
Technical & hardware support : Manuel Goepfert

Contact : metmap@orbifly.com




SOURCES & CREDITS :

   NOAA       Earth
Advisory